Time;durP1;ratioP1;P1;durP2;ratioP2;P2;SDS_P1;SDS_P2;PMS_P1;PMS_P2;Temp;Humidity;BMP_temperature;BMP_pressure;BME280_temperature;BME280_humidity;BME280_pressure;Samples;Min_cycle;Max_cycle;Signal;HPM_P1;HPM_P2
2022/07/26 00:01:03;;;;;;;15.48;4.32;;;18.60;79.90;;;;;;5059705;28;20024;-72
2022/07/26 00:03:29;;;;;;;18.77;4.32;;;18.70;79.80;;;;;;5066603;28;20024;-71
2022/07/26 00:05:55;;;;;;;20.20;4.57;;;18.60;80.00;;;;;;5062599;28;20033;-71
2022/07/26 00:08:20;;;;;;;16.67;4.78;;;18.60;80.00;;;;;;5061291;28;20241;-71
2022/07/26 00:10:48;;;;;;;14.68;4.22;;;18.70;79.90;;;;;;5060861;28;20045;-71
2022/07/26 00:13:16;;;;;;;19.35;4.65;;;18.70;80.20;;;;;;5061827;28;20330;-72
2022/07/26 00:15:42;;;;;;;19.50;4.03;;;18.60;80.30;;;;;;5061695;28;20043;-71
2022/07/26 00:18:08;;;;;;;19.75;4.45;;;18.60;80.50;;;;;;5062562;28;20025;-71
2022/07/26 00:20:34;;;;;;;15.80;4.05;;;18.60;80.40;;;;;;5066692;28;20040;-71
2022/07/26 00:23:00;;;;;;;18.25;4.80;;;18.60;80.50;;;;;;5062552;28;20025;-71
2022/07/26 00:25:26;;;;;;;25.48;4.88;;;18.60;80.80;;;;;;5063036;28;20052;-71
2022/07/26 00:27:51;;;;;;;22.23;4.55;;;18.60;80.90;;;;;;5063335;28;20040;-71
2022/07/26 00:30:17;;;;;;;18.52;5.28;;;18.60;80.80;;;;;;5061218;28;20032;-71
2022/07/26 00:32:43;;;;;;;21.13;4.60;;;18.60;80.80;;;;;;5061597;28;20139;-71
2022/07/26 00:35:09;;;;;;;18.85;4.97;;;18.60;80.90;;;;;;5061642;28;20040;-71
2022/07/26 00:37:35;;;;;;;19.65;4.97;;;18.60;81.20;;;;;;5062848;28;20468;-71
2022/07/26 00:40:01;;;;;;;18.45;5.00;;;18.60;81.10;;;;;;5058593;28;20043;-72
2022/07/26 00:42:26;;;;;;;20.73;5.18;;;18.60;81.00;;;;;;5064010;28;20028;-72
2022/07/26 00:44:52;;;;;;;17.30;4.57;;;18.60;80.90;;;;;;5062073;28;20097;-71
2022/07/26 00:47:18;;;;;;;18.35;4.28;;;18.60;81.00;;;;;;5062392;28;20115;-70
2022/07/26 00:49:43;;;;;;;18.52;4.32;;;18.60;80.90;;;;;;5062292;28;20036;-71
2022/07/26 00:52:10;;;;;;;14.13;4.82;;;18.60;80.90;;;;;;5064464;28;20063;-71
2022/07/26 00:54:37;;;;;;;18.25;5.38;;;18.60;81.20;;;;;;5062503;28;20129;-72
2022/07/26 00:57:04;;;;;;;22.75;6.18;;;18.60;80.90;;;;;;5062618;28;20033;-71
2022/07/26 00:59:29;;;;;;;19.70;4.85;;;18.60;80.80;;;;;;5065945;28;20179;-72
2022/07/26 01:01:55;;;;;;;16.00;4.50;;;18.60;81.10;;;;;;5062359;28;20123;-71
2022/07/26 01:04:21;;;;;;;20.00;4.90;;;18.60;81.00;;;;;;5061703;28;20055;-71
2022/07/26 01:06:48;;;;;;;17.23;4.85;;;18.60;80.90;;;;;;5067657;28;20491;-71
2022/07/26 01:09:15;;;;;;;18.20;4.78;;;18.60;80.90;;;;;;5064326;28;20066;-71
2022/07/26 01:11:41;;;;;;;18.77;5.00;;;18.60;81.10;;;;;;5061575;28;20455;-71
2022/07/26 01:14:08;;;;;;;18.77;5.22;;;18.60;81.20;;;;;;5058506;28;20048;-71
2022/07/26 01:16:33;;;;;;;18.60;5.10;;;18.60;81.40;;;;;;5056575;28;20041;-72
2022/07/26 01:18:59;;;;;;;16.95;5.07;;;18.60;81.30;;;;;;5061100;28;20036;-71
2022/07/26 01:21:32;;;;;;;18.50;5.57;;;18.60;81.30;;;;;;5063014;28;20429;-71
2022/07/26 01:23:58;;;;;;;15.95;4.50;;;18.60;81.50;;;;;;5061988;28;20158;-71
2022/07/26 01:26:24;;;;;;;15.73;5.45;;;18.50;81.70;;;;;;5058608;28;20142;-72
2022/07/26 01:28:50;;;;;;;19.17;5.57;;;18.60;81.80;;;;;;5062120;28;20042;-71
2022/07/26 01:31:16;;;;;;;18.63;4.90;;;18.60;81.70;;;;;;5061043;28;20046;-71
2022/07/26 01:33:42;;;;;;;19.10;4.63;;;18.50;81.70;;;;;;5060291;28;20036;-72
2022/07/26 01:36:08;;;;;;;20.27;5.95;;;18.50;81.80;;;;;;5059934;28;20415;-71
2022/07/26 01:38:34;;;;;;;22.52;5.47;;;18.50;81.70;;;;;;5062043;28;20029;-71
2022/07/26 01:41:00;;;;;;;20.75;5.30;;;18.50;81.70;;;;;;5062091;28;20453;-71
2022/07/26 01:43:25;;;;;;;16.58;4.85;;;18.50;81.80;;;;;;5059538;28;20464;-72
2022/07/26 01:45:51;;;;;;;15.15;4.75;;;18.40;82.00;;;;;;5059777;28;20032;-73
2022/07/26 01:48:16;;;;;;;17.50;5.22;;;18.40;82.10;;;;;;5059782;28;20532;-72
2022/07/26 01:50:42;;;;;;;21.27;5.95;;;18.40;82.20;;;;;;5059642;28;20036;-71
2022/07/26 01:53:08;;;;;;;15.82;5.05;;;18.40;82.40;;;;;;5060160;28;20487;-72
2022/07/26 01:55:34;;;;;;;19.15;5.85;;;18.30;82.50;;;;;;5061111;28;20036;-71
2022/07/26 01:58:00;;;;;;;20.17;6.25;;;18.30;82.70;;;;;;5062277;28;20041;-72
2022/07/26 02:00:25;;;;;;;20.85;5.43;;;18.30;82.70;;;;;;5057448;28;20034;-71
2022/07/26 02:02:51;;;;;;;18.58;5.63;;;18.30;83.10;;;;;;5059446;28;20743;-72
2022/07/26 02:05:17;;;;;;;20.00;6.03;;;18.20;83.10;;;;;;5061109;28;20043;-71
2022/07/26 02:07:43;;;;;;;24.20;5.53;;;18.30;83.30;;;;;;5061443;28;20116;-71
2022/07/26 02:10:11;;;;;;;20.95;5.47;;;18.20;83.40;;;;;;5061728;28;20452;-71
2022/07/26 02:12:37;;;;;;;17.02;5.13;;;18.30;83.30;;;;;;5060902;28;20031;-71
2022/07/26 02:15:04;;;;;;;20.35;6.22;;;18.30;83.20;;;;;;5060212;28;20040;-72
2022/07/26 02:17:30;;;;;;;19.02;5.43;;;18.30;83.20;;;;;;5060440;28;20051;-71
2022/07/26 02:19:56;;;;;;;20.02;5.57;;;18.30;83.20;;;;;;5058792;28;20036;-72
2022/07/26 02:22:22;;;;;;;15.38;5.32;;;18.20;83.30;;;;;;5057710;28;20432;-72
2022/07/26 02:24:48;;;;;;;18.85;5.60;;;18.30;83.40;;;;;;5059732;28;20491;-71
2022/07/26 02:27:14;;;;;;;20.52;5.45;;;18.20;83.20;;;;;;5058948;28;20112;-71
2022/07/26 02:29:40;;;;;;;15.98;5.13;;;18.10;83.40;;;;;;5058922;28;20515;-71
2022/07/26 02:32:06;;;;;;;21.50;5.88;;;18.20;83.50;;;;;;5059469;28;20428;-71
2022/07/26 02:34:32;;;;;;;21.17;5.45;;;18.10;83.40;;;;;;5060116;28;20106;-72
2022/07/26 02:36:58;;;;;;;18.27;5.32;;;18.10;83.50;;;;;;5058323;28;20111;-72
2022/07/26 02:39:27;;;;;;;16.05;5.00;;;18.10;83.60;;;;;;5060538;28;20082;-71
2022/07/26 02:41:54;;;;;;;20.65;6.20;;;18.10;83.70;;;;;;5060343;28;20025;-72
2022/07/26 02:44:20;;;;;;;17.58;5.50;;;18.10;83.70;;;;;;5062191;28;20653;-72
2022/07/26 02:46:46;;;;;;;19.95;5.55;;;18.10;83.70;;;;;;5057335;28;20033;-71
2022/07/26 02:49:11;;;;;;;17.95;5.80;;;18.00;83.60;;;;;;5060895;28;20443;-71
2022/07/26 02:51:37;;;;;;;15.30;5.68;;;18.00;83.70;;;;;;5059015;28;20486;-71
2022/07/26 02:54:03;;;;;;;21.42;6.55;;;17.90;83.70;;;;;;5060852;28;20036;-72
2022/07/26 02:56:29;;;;;;;19.48;5.95;;;17.90;83.60;;;;;;5058852;28;20033;-71
2022/07/26 02:58:54;;;;;;;21.70;5.93;;;17.80;83.60;;;;;;5060042;28;20029;-71
2022/07/26 03:01:20;;;;;;;19.27;6.32;;;17.80;83.70;;;;;;5057797;28;20924;-72
2022/07/26 03:03:47;;;;;;;16.77;5.63;;;17.80;83.70;;;;;;5059507;28;20419;-72
2022/07/26 03:06:13;;;;;;;15.25;6.10;;;17.70;83.70;;;;;;5059555;28;20041;-72
2022/07/26 03:08:38;;;;;;;18.27;6.13;;;17.70;83.80;;;;;;5061960;28;20064;-72
2022/07/26 03:11:05;;;;;;;17.42;5.70;;;17.60;84.00;;;;;;5058738;28;20178;-72
2022/07/26 03:13:31;;;;;;;20.15;6.85;;;17.60;84.10;;;;;;5058487;28;20137;-72
2022/07/26 03:15:57;;;;;;;13.82;5.38;;;17.60;84.20;;;;;;5056478;28;20466;-72
2022/07/26 03:18:22;;;;;;;16.90;6.10;;;17.50;84.20;;;;;;5059178;28;20036;-71
2022/07/26 03:20:48;;;;;;;21.63;6.40;;;17.50;84.20;;;;;;5059748;28;20037;-71
2022/07/26 03:23:14;;;;;;;15.50;6.43;;;17.50;84.20;;;;;;5057467;28;20200;-71
2022/07/26 03:25:40;;;;;;;19.13;6.82;;;17.40;84.30;;;;;;5059700;28;20041;-71
2022/07/26 03:28:06;;;;;;;19.13;6.60;;;17.40;84.50;;;;;;5057723;28;20482;-72
2022/07/26 03:30:32;;;;;;;16.35;5.70;;;17.50;84.40;;;;;;5060025;28;20029;-73
2022/07/26 03:32:57;;;;;;;17.23;6.70;;;17.40;84.40;;;;;;5057744;28;20091;-73
2022/07/26 03:35:24;;;;;;;16.80;6.32;;;17.40;84.50;;;;;;5063657;28;20040;-72
2022/07/26 03:37:49;;;;;;;14.90;6.22;;;17.40;84.50;;;;;;5060349;28;20938;-71
2022/07/26 03:40:16;;;;;;;17.90;6.60;;;17.40;84.60;;;;;;5065054;28;20035;-71
2022/07/26 03:42:43;;;;;;;15.05;6.00;;;17.40;84.60;;;;;;5063241;28;20663;-72
2022/07/26 03:45:09;;;;;;;18.05;6.63;;;17.40;84.70;;;;;;5062761;28;20407;-71
2022/07/26 03:47:36;;;;;;;18.48;6.60;;;17.40;84.50;;;;;;5063026;28;20498;-71
2022/07/26 03:50:02;;;;;;;18.20;7.22;;;17.40;84.30;;;;;;5066988;28;20738;-73
2022/07/26 03:52:28;;;;;;;17.35;5.78;;;17.40;84.30;;;;;;5067032;28;20161;-72
2022/07/26 03:54:53;;;;;;;17.00;6.57;;;17.40;84.40;;;;;;5067108;28;20119;-71
2022/07/26 03:57:19;;;;;;;15.57;6.07;;;17.50;84.20;;;;;;5065411;28;20094;-71
2022/07/26 03:59:45;;;;;;;15.98;6.20;;;17.50;84.10;;;;;;5061160;28;20037;-71
2022/07/26 04:02:10;;;;;;;15.50;5.43;;;17.50;84.10;;;;;;5061837;28;20042;-71
2022/07/26 04:04:36;;;;;;;12.18;5.90;;;17.50;83.90;;;;;;5060400;28;20029;-71
2022/07/26 04:07:02;;;;;;;14.70;6.47;;;17.50;83.80;;;;;;5059099;28;20123;-72
2022/07/26 04:09:27;;;;;;;12.20;5.80;;;17.50;83.80;;;;;;5059425;28;20127;-73
2022/07/26 04:11:53;;;;;;;13.57;6.03;;;17.50;83.70;;;;;;5061815;28;20037;-71
2022/07/26 04:14:20;;;;;;;16.73;6.28;;;17.50;83.70;;;;;;5059777;28;20037;-71
2022/07/26 04:16:45;;;;;;;16.50;6.65;;;17.50;83.50;;;;;;5062024;28;20036;-71
2022/07/26 04:19:11;;;;;;;15.02;7.20;;;17.60;83.40;;;;;;5059910;28;20105;-71
2022/07/26 04:21:37;;;;;;;15.35;6.32;;;17.50;83.40;;;;;;5059617;28;20037;-72
2022/07/26 04:24:03;;;;;;;17.90;6.20;;;17.60;83.10;;;;;;5058942;28;20491;-71
2022/07/26 04:26:28;;;;;;;13.23;5.55;;;17.60;82.90;;;;;;5055779;28;20045;-72
2022/07/26 04:28:55;;;;;;;15.05;7.03;;;17.60;82.80;;;;;;5058499;28;20045;-71
2022/07/26 04:31:21;;;;;;;12.27;5.88;;;17.70;82.30;;;;;;5059770;28;20380;-71
2022/07/26 04:33:46;;;;;;;13.05;5.97;;;17.60;82.20;;;;;;5058238;28;20495;-71
2022/07/26 04:36:12;;;;;;;15.43;6.28;;;17.70;82.00;;;;;;5057323;28;20090;-71
2022/07/26 04:38:38;;;;;;;14.27;6.75;;;17.70;81.80;;;;;;5061428;28;20539;-72
2022/07/26 04:41:04;;;;;;;15.32;6.45;;;17.70;81.50;;;;;;5056383;28;20379;-71
2022/07/26 04:43:29;;;;;;;14.27;5.97;;;17.80;81.30;;;;;;5060065;28;20568;-72
2022/07/26 04:45:56;;;;;;;18.50;6.63;;;17.70;81.40;;;;;;5061405;28;20546;-71
2022/07/26 04:48:22;;;;;;;12.90;5.95;;;17.80;81.10;;;;;;5055921;28;20119;-72
2022/07/26 04:50:48;;;;;;;12.63;6.20;;;17.80;81.00;;;;;;5056314;28;20040;-71
2022/07/26 04:53:14;;;;;;;13.95;5.53;;;17.80;80.90;;;;;;5065764;28;20090;-72
2022/07/26 04:55:40;;;;;;;11.80;5.90;;;17.90;80.50;;;;;;5052094;28;20414;-73
2022/07/26 04:58:06;;;;;;;14.00;5.38;;;17.90;79.90;;;;;;5058959;28;20082;-72
2022/07/26 05:00:32;;;;;;;12.35;6.30;;;17.90;79.90;;;;;;5055241;28;20718;-71
2022/07/26 05:02:59;;;;;;;10.95;5.70;;;17.90;79.50;;;;;;5051160;28;20036;-72
2022/07/26 05:05:28;;;;;;;11.95;5.45;;;18.00;79.40;;;;;;5052474;28;20044;-71
2022/07/26 05:07:56;;;;;;;10.35;5.32;;;18.00;79.10;;;;;;5058612;28;20066;-71
2022/07/26 05:10:28;;;;;;;12.00;5.05;;;18.00;78.80;;;;;;5058534;28;20052;-71
2022/07/26 05:12:54;;;;;;;16.52;6.05;;;18.00;78.40;;;;;;5059998;28;20085;-71
2022/07/26 05:15:19;;;;;;;12.43;5.50;;;17.90;78.30;;;;;;5061124;28;20067;-71
2022/07/26 05:17:45;;;;;;;15.57;5.50;;;17.90;78.30;;;;;;5059286;28;20041;-71
2022/07/26 05:20:13;;;;;;;12.75;5.57;;;17.90;78.30;;;;;;5057888;28;20143;-72
2022/07/26 05:22:39;;;;;;;15.63;5.03;;;17.90;77.90;;;;;;5057253;28;20103;-71
2022/07/26 05:25:06;;;;;;;16.08;6.10;;;18.00;78.00;;;;;;5056802;28;20468;-71
2022/07/26 05:27:32;;;;;;;10.23;4.90;;;17.90;77.50;;;;;;5059502;28;20055;-72
2022/07/26 05:29:57;;;;;;;12.68;5.47;;;18.00;77.50;;;;;;5060941;28;20610;-71
2022/07/26 05:32:23;;;;;;;14.20;4.38;;;18.00;77.60;;;;;;5056085;28;20066;-71
2022/07/26 05:34:49;;;;;;;12.18;4.68;;;18.10;77.10;;;;;;5059969;28;20043;-72
2022/07/26 05:37:15;;;;;;;13.68;5.18;;;18.10;77.10;;;;;;5053220;28;20033;-71
2022/07/26 05:39:40;;;;;;;12.45;4.63;;;18.10;77.00;;;;;;5053119;28;20132;-71
2022/07/26 05:42:06;;;;;;;11.35;4.38;;;18.20;77.10;;;;;;5057371;28;20048;-73
2022/07/26 05:44:32;;;;;;;11.50;4.72;;;18.20;76.80;;;;;;5057746;28;20048;-72
2022/07/26 05:46:57;;;;;;;15.02;4.95;;;18.20;76.50;;;;;;5055477;28;20032;-71
2022/07/26 05:49:24;;;;;;;12.93;4.65;;;18.30;76.40;;;;;;5055999;28;20037;-71
2022/07/26 05:51:50;;;;;;;9.55;4.63;;;18.40;76.20;;;;;;5056679;28;20440;-71
2022/07/26 05:54:17;;;;;;;9.85;4.45;;;18.40;75.90;;;;;;5057037;28;20051;-71
2022/07/26 05:56:43;;;;;;;10.38;3.95;;;18.40;76.10;;;;;;5059707;28;20044;-71
2022/07/26 05:59:08;;;;;;;12.27;4.55;;;18.50;76.10;;;;;;5052238;28;20037;-71
2022/07/26 06:01:34;;;;;;;8.98;4.55;;;18.60;75.80;;;;;;5057145;28;20480;-72
2022/07/26 06:04:00;;;;;;;13.05;4.32;;;18.60;76.10;;;;;;5055201;28;20456;-71
2022/07/26 06:06:26;;;;;;;13.20;4.68;;;18.60;75.40;;;;;;5056071;28;20814;-71
2022/07/26 06:08:51;;;;;;;13.43;4.65;;;18.70;75.70;;;;;;5053708;28;20036;-72
2022/07/26 06:11:17;;;;;;;12.20;4.88;;;18.70;75.40;;;;;;5059258;28;20083;-71
2022/07/26 06:13:43;;;;;;;12.85;4.47;;;18.70;75.40;;;;;;5054097;28;20051;-70
2022/07/26 06:16:08;;;;;;;13.57;4.57;;;18.60;75.70;;;;;;5055271;28;20110;-72
2022/07/26 06:18:34;;;;;;;9.38;3.92;;;18.60;75.40;;;;;;5055769;28;20564;-70
2022/07/26 06:21:00;;;;;;;9.82;4.30;;;18.50;76.10;;;;;;5054513;28;20115;-72
2022/07/26 06:23:25;;;;;;;10.82;4.00;;;18.60;76.00;;;;;;5057835;28;20040;-72
2022/07/26 06:25:51;;;;;;;9.88;4.03;;;18.60;75.90;;;;;;5060666;28;20051;-72
2022/07/26 06:28:17;;;;;;;9.75;4.20;;;18.60;75.90;;;;;;5058794;28;20484;-71
2022/07/26 06:30:43;;;;;;;11.88;4.93;;;18.60;75.90;;;;;;5057546;28;20418;-73
2022/07/26 06:33:10;;;;;;;13.13;4.63;;;18.60;75.90;;;;;;5055416;28;20037;-72
2022/07/26 06:35:37;;;;;;;10.98;4.45;;;18.60;75.70;;;;;;5055648;28;20052;-72
2022/07/26 06:38:04;;;;;;;9.93;4.05;;;18.70;75.70;;;;;;5056460;28;20480;-71
2022/07/26 06:40:30;;;;;;;11.82;4.22;;;18.80;75.40;;;;;;5058684;28;20381;-72
2022/07/26 06:42:55;;;;;;;11.48;3.85;;;18.80;75.00;;;;;;5053797;28;20037;-73
2022/07/26 06:45:21;;;;;;;13.77;4.50;;;18.90;75.20;;;;;;5053108;28;20351;-73
2022/07/26 06:47:47;;;;;;;13.45;4.00;;;18.90;74.40;;;;;;5054659;28;20036;-72
2022/07/26 06:50:13;;;;;;;11.00;3.83;;;19.00;74.50;;;;;;5056633;28;20344;-73
2022/07/26 06:52:38;;;;;;;10.68;4.05;;;19.10;74.00;;;;;;5059533;28;20056;-71
2022/07/26 06:55:05;;;;;;;12.95;3.70;;;19.00;74.00;;;;;;5058850;28;20041;-73
2022/07/26 06:57:30;;;;;;;11.88;3.97;;;19.10;73.90;;;;;;5059009;28;20581;-72
2022/07/26 06:59:56;;;;;;;12.35;3.72;;;19.10;74.10;;;;;;5058345;28;20037;-72
2022/07/26 07:02:22;;;;;;;9.98;4.20;;;19.20;73.50;;;;;;5059505;28;20528;-71
2022/07/26 07:04:47;;;;;;;14.00;3.30;;;19.30;73.30;;;;;;5055392;28;20048;-72
2022/07/26 07:07:13;;;;;;;11.05;3.38;;;19.50;73.20;;;;;;5055057;28;20098;-71
2022/07/26 07:09:39;;;;;;;11.68;3.47;;;19.60;72.90;;;;;;5059932;28;20502;-72
2022/07/26 07:12:06;;;;;;;11.48;3.28;;;19.60;72.40;;;;;;5055949;28;20051;-73
2022/07/26 07:14:32;;;;;;;8.75;3.13;;;19.70;71.90;;;;;;5064379;28;20041;-72
2022/07/26 07:16:58;;;;;;;10.40;3.10;;;19.60;72.10;;;;;;5054898;28;20037;-72
2022/07/26 07:19:24;;;;;;;11.40;3.17;;;19.60;71.30;;;;;;5061481;28;20488;-72
2022/07/26 07:21:50;;;;;;;9.60;3.35;;;19.60;71.50;;;;;;5058120;28;20073;-72
2022/07/26 07:24:16;;;;;;;13.30;3.90;;;19.50;71.90;;;;;;5062835;28;20071;-72
2022/07/26 07:26:42;;;;;;;13.50;3.40;;;19.50;71.70;;;;;;5060263;28;20032;-72
2022/07/26 07:29:11;;;;;;;12.65;4.20;;;19.60;71.60;;;;;;5063363;28;20066;-72
2022/07/26 07:31:37;;;;;;;12.77;3.30;;;19.70;71.20;;;;;;5061001;28;20041;-72
2022/07/26 07:34:03;;;;;;;11.82;3.10;;;19.60;71.10;;;;;;5063226;28;20399;-71
2022/07/26 07:36:29;;;;;;;10.88;3.30;;;19.70;71.00;;;;;;5064936;28;20675;-72
2022/07/26 07:38:54;;;;;;;10.80;3.10;;;20.00;70.90;;;;;;5058890;28;20048;-72
2022/07/26 07:41:20;;;;;;;10.75;3.13;;;20.10;69.60;;;;;;5063082;28;20044;-71
2022/07/26 07:43:46;;;;;;;9.18;2.97;;;20.00;68.90;;;;;;5060481;28;20040;-71
2022/07/26 07:46:12;;;;;;;10.80;3.10;;;20.00;68.90;;;;;;5064752;28;20549;-71
2022/07/26 07:48:39;;;;;;;12.93;3.40;;;20.10;69.30;;;;;;5061468;28;20362;-71
2022/07/26 07:51:06;;;;;;;12.10;3.20;;;20.40;67.80;;;;;;5065568;28;20048;-72
2022/07/26 07:53:32;;;;;;;11.85;2.90;;;20.60;67.30;;;;;;5064068;28;20060;-73
2022/07/26 07:55:57;;;;;;;12.90;3.28;;;20.90;67.50;;;;;;5064667;28;20461;-71
2022/07/26 07:58:23;;;;;;;10.90;3.35;;;20.90;65.40;;;;;;5064252;28;20032;-72
2022/07/26 08:00:49;;;;;;;12.27;3.05;;;20.80;66.30;;;;;;5062855;28;20120;-72
2022/07/26 08:03:15;;;;;;;11.23;3.55;;;20.70;66.00;;;;;;5064805;28;20393;-72
2022/07/26 08:05:40;;;;;;;10.75;3.50;;;20.90;65.50;;;;;;5063011;28;20055;-72
2022/07/26 08:08:06;;;;;;;10.13;2.95;;;21.30;64.50;;;;;;5062492;28;20036;-72
2022/07/26 08:10:32;;;;;;;9.95;3.10;;;21.30;63.40;;;;;;5064072;28;20046;-73
2022/07/26 08:12:58;;;;;;;10.50;3.13;;;21.10;64.50;;;;;;5060100;28;20036;-71
2022/07/26 08:15:25;;;;;;;10.05;3.42;;;21.20;64.10;;;;;;5057001;28;20040;-73
2022/07/26 08:17:51;;;;;;;11.48;3.00;;;21.10;64.00;;;;;;5060404;28;20044;-73
2022/07/26 08:20:17;;;;;;;9.15;3.35;;;21.50;64.50;;;;;;5054201;28;20040;-74
2022/07/26 08:22:42;;;;;;;8.02;3.30;;;21.60;63.10;;;;;;5061417;28;20035;-71
2022/07/26 08:25:09;;;;;;;9.65;3.33;;;21.70;63.00;;;;;;5057838;28;20040;-73
2022/07/26 08:27:34;;;;;;;11.25;3.40;;;21.70;61.90;;;;;;5060238;28;20073;-72
2022/07/26 08:30:00;;;;;;;9.07;3.42;;;21.80;63.70;;;;;;5061004;28;20028;-72
2022/07/26 08:32:26;;;;;;;8.82;2.83;;;22.00;61.10;;;;;;5058663;28;20036;-76
2022/07/26 08:34:51;;;;;;;6.97;2.88;;;22.30;61.50;;;;;;5058563;28;20458;-77
2022/07/26 08:37:17;;;;;;;10.05;3.33;;;22.50;61.00;;;;;;5055173;28;20066;-78
2022/07/26 08:39:43;;;;;;;7.35;2.65;;;22.30;59.50;;;;;;5067163;28;20028;-80
2022/07/26 08:42:17;;;;;;;7.88;2.45;;;22.40;58.50;;;;;;5055906;28;20048;-76
2022/07/26 08:44:43;;;;;;;7.60;2.63;;;22.60;57.70;;;;;;5059437;28;20045;-76
2022/07/26 08:47:20;;;;;;;6.55;2.42;;;22.40;57.40;;;;;;5062664;28;20044;-76
2022/07/26 08:49:46;;;;;;;7.80;2.60;;;22.40;58.50;;;;;;5060933;28;20049;-77
2022/07/26 08:52:13;;;;;;;7.10;2.38;;;22.20;58.30;;;;;;5052304;28;20040;-76
2022/07/26 08:54:44;;;;;;;7.07;2.40;;;22.30;58.50;;;;;;5058639;28;20111;-80
2022/07/26 08:57:10;;;;;;;7.65;2.65;;;22.90;57.40;;;;;;5053096;28;20057;-75
2022/07/26 08:59:35;;;;;;;6.88;2.50;;;23.00;56.50;;;;;;5060217;28;20037;-78
2022/07/26 09:02:04;;;;;;;8.32;2.70;;;23.00;55.70;;;;;;5062225;28;20050;-75
2022/07/26 09:04:41;;;;;;;7.63;2.53;;;22.90;55.70;;;;;;5054172;28;20055;-79
2022/07/26 09:07:09;;;;;;;6.85;2.60;;;23.00;55.50;;;;;;5062536;28;20028;-77
2022/07/26 09:10:01;;;;;;;6.82;2.45;;;23.00;54.00;;;;;;5055332;28;20055;-76
2022/07/26 09:12:29;;;;;;;7.45;2.72;;;23.40;54.90;;;;;;5061121;28;20111;-77
2022/07/26 09:14:56;;;;;;;7.00;2.50;;;23.80;53.50;;;;;;5060724;28;20040;-75
2022/07/26 09:17:24;;;;;;;9.38;2.67;;;24.40;52.80;;;;;;5060407;28;20090;-75
2022/07/26 09:20:10;;;;;;;6.15;2.40;;;24.70;52.00;;;;;;5060836;28;20036;-75
2022/07/26 09:22:37;;;;;;;7.95;2.38;;;24.00;53.30;;;;;;5053007;28;20037;-77
2022/07/26 09:25:19;;;;;;;8.50;2.60;;;23.50;54.80;;;;;;5056577;28;20476;-78
2022/07/26 09:27:45;;;;;;;7.85;2.15;;;23.30;54.90;;;;;;5058802;28;20436;-78
2022/07/26 09:30:11;;;;;;;7.60;2.30;;;23.00;53.70;;;;;;5058429;28;20575;-76
2022/07/26 09:32:37;;;;;;;7.70;2.50;;;22.60;54.00;;;;;;5058185;28;20036;-77
2022/07/26 09:35:15;;;;;;;7.25;2.20;;;22.40;54.60;;;;;;5052136;28;20044;-76
2022/07/26 09:37:42;;;;;;;5.88;2.65;;;22.40;55.20;;;;;;5057582;28;20048;-76
2022/07/26 09:40:12;;;;;;;6.55;1.77;;;22.50;54.30;;;;;;5058355;28;20032;-76
2022/07/26 09:42:56;;;;;;;6.05;1.70;;;22.60;54.70;;;;;;5056790;28;20122;-77
2022/07/26 09:45:23;;;;;;;3.70;1.47;;;22.70;57.40;;;;;;5059103;28;20040;-76
2022/07/26 09:47:49;;;;;;;3.13;1.45;;;22.60;61.60;;;;;;5059085;28;20423;-77
2022/07/26 09:50:20;;;;;;;3.80;1.50;;;22.70;62.80;;;;;;5054533;28;20384;-75
2022/07/26 09:53:12;;;;;;;3.50;1.30;;;22.60;63.50;;;;;;5056331;28;20496;-73
2022/07/26 09:55:43;;;;;;;3.10;1.30;;;22.50;64.60;;;;;;5061634;28;20036;-74
2022/07/26 09:58:14;;;;;;;4.38;1.50;;;22.30;65.20;;;;;;5066612;28;20029;-76
2022/07/26 10:00:41;;;;;;;2.97;1.40;;;22.30;65.30;;;;;;5061787;28;20078;-76
2022/07/26 10:03:07;;;;;;;4.55;1.80;;;22.40;64.70;;;;;;5057399;28;20508;-74
2022/07/26 10:05:33;;;;;;;3.50;1.50;;;22.50;63.70;;;;;;5058478;28;20052;-77
2022/07/26 10:08:00;;;;;;;4.13;1.50;;;22.60;62.80;;;;;;5056939;28;20028;-78
2022/07/26 10:10:30;;;;;;;3.45;1.20;;;22.80;63.20;;;;;;5060889;28;20044;-76
2022/07/26 10:12:57;;;;;;;4.63;1.35;;;23.20;62.20;;;;;;5055386;28;20095;-76
2022/07/26 10:15:38;;;;;;;4.72;1.90;;;23.10;60.60;;;;;;5055966;28;20052;-76
2022/07/26 10:18:07;;;;;;;9.32;2.15;;;23.30;59.80;;;;;;5056553;28;20033;-76
2022/07/26 10:20:43;;;;;;;3.45;1.17;;;23.60;59.50;;;;;;5057476;28;20039;-77
2022/07/26 10:23:30;;;;;;;3.78;0.90;;;23.50;59.30;;;;;;5056225;28;20029;-78
2022/07/26 10:25:56;;;;;;;1.60;0.68;;;23.40;60.10;;;;;;5059067;28;20180;-78
2022/07/26 10:28:25;;;;;;;1.70;0.60;;;23.50;60.70;;;;;;5056353;28;20488;-77
2022/07/26 10:30:50;;;;;;;1.35;0.70;;;23.80;58.80;;;;;;5058491;28;20028;-77
2022/07/26 10:33:20;;;;;;;1.50;0.60;;;23.50;59.00;;;;;;5061572;28;20059;-78
2022/07/26 10:35:46;;;;;;;1.75;0.70;;;23.60;58.90;;;;;;5057154;28;20040;-79
2022/07/26 10:38:21;;;;;;;1.50;0.63;;;23.90;59.50;;;;;;5057326;28;20507;-78
2022/07/26 10:41:04;;;;;;;2.88;1.00;;;24.10;58.00;;;;;;5054858;28;20037;-79
2022/07/26 10:43:31;;;;;;;5.25;1.38;;;24.50;55.90;;;;;;5053746;28;20140;-77
2022/07/26 10:46:15;;;;;;;2.65;0.80;;;24.40;54.90;;;;;;5057648;28;20090;-77
2022/07/26 10:49:07;;;;;;;1.10;0.70;;;24.10;58.10;;;;;;5058235;28;20490;-77
2022/07/26 10:51:39;;;;;;;3.42;1.00;;;23.90;59.50;;;;;;5054139;28;20070;-74
2022/07/26 10:54:09;;;;;;;3.50;1.05;;;23.50;60.40;;;;;;5061645;28;20028;-77
2022/07/26 10:56:35;;;;;;;3.33;1.20;;;23.50;60.10;;;;;;5058156;28;20077;-76
2022/07/26 10:59:03;;;;;;;4.55;1.10;;;23.60;59.30;;;;;;5061222;28;20040;-77
2022/07/26 11:01:39;;;;;;;5.07;1.20;;;23.40;59.00;;;;;;5056674;28;20959;-77
2022/07/26 11:04:16;;;;;;;2.47;0.98;;;23.20;59.60;;;;;;5065416;28;20024;-78
2022/07/26 11:06:42;;;;;;;2.80;1.10;;;23.40;59.90;;;;;;5062155;28;20264;-74
2022/07/26 11:09:11;;;;;;;2.95;1.10;;;23.60;59.70;;;;;;5066207;28;20438;-77
2022/07/26 11:11:37;;;;;;;3.83;1.73;;;23.70;58.60;;;;;;5059333;28;20504;-77
2022/07/26 11:14:10;;;;;;;3.33;1.20;;;23.70;57.80;;;;;;5061316;28;20059;-77
2022/07/26 11:16:41;;;;;;;3.13;1.00;;;23.60;58.40;;;;;;5053828;28;20376;-75
2022/07/26 11:19:19;;;;;;;2.78;1.15;;;23.80;57.20;;;;;;5064486;28;20907;-75
2022/07/26 11:21:51;;;;;;;3.25;1.48;;;23.30;58.60;;;;;;5052888;28;20114;-75
2022/07/26 11:24:17;;;;;;;4.50;1.90;;;23.10;59.10;;;;;;5053846;28;20029;-76
2022/07/26 11:26:45;;;;;;;3.90;1.50;;;22.90;58.70;;;;;;5056549;28;20032;-77
2022/07/26 11:29:11;;;;;;;4.20;1.27;;;22.80;60.00;;;;;;5058590;28;20047;-77
2022/07/26 11:31:42;;;;;;;3.90;1.30;;;22.70;59.90;;;;;;5060785;28;20395;-75
2022/07/26 11:34:24;;;;;;;2.97;1.10;;;22.70;59.80;;;;;;5060497;28;20075;-76
2022/07/26 11:36:52;;;;;;;7.43;1.23;;;22.50;60.50;;;;;;5056719;28;20121;-75
2022/07/26 11:39:26;;;;;;;3.90;1.10;;;22.40;60.40;;;;;;5043379;28;20032;-76
2022/07/26 11:42:13;;;;;;;3.65;1.38;;;22.30;63.40;;;;;;5048260;28;20047;-76
2022/07/26 11:44:43;;;;;;;3.30;1.40;;;21.90;67.00;;;;;;5058554;28;20045;-75
2022/07/26 11:47:21;;;;;;;4.68;1.30;;;21.90;68.60;;;;;;5054923;28;20041;-75
2022/07/26 11:49:48;;;;;;;4.78;1.50;;;21.80;68.80;;;;;;5055551;28;20041;-75
2022/07/26 11:52:14;;;;;;;2.03;1.40;;;21.60;69.60;;;;;;5049672;28;20056;-75
2022/07/26 11:54:51;;;;;;;4.03;1.20;;;21.40;69.40;;;;;;5062698;28;20028;-74
2022/07/26 11:57:17;;;;;;;4.60;1.55;;;21.30;69.20;;;;;;5060878;28;20040;-74
2022/07/26 11:59:45;;;;;;;3.78;1.45;;;21.20;68.60;;;;;;5066979;28;20111;-75
2022/07/26 12:02:13;;;;;;;3.97;1.88;;;21.40;69.30;;;;;;5063441;28;20032;-75
2022/07/26 12:04:43;;;;;;;3.75;1.42;;;21.40;68.60;;;;;;5055715;28;20076;-75
2022/07/26 12:07:20;;;;;;;2.80;1.38;;;21.40;68.70;;;;;;5072226;28;20578;-75
2022/07/26 12:09:49;;;;;;;3.22;1.60;;;21.50;69.40;;;;;;5059813;28;20040;-75
2022/07/26 12:12:23;;;;;;;3.08;1.40;;;21.60;68.70;;;;;;5063644;28;20037;-78
2022/07/26 12:14:58;;;;;;;3.95;1.52;;;21.70;68.70;;;;;;5057466;28;20086;-76
2022/07/26 12:17:26;;;;;;;3.45;1.30;;;21.70;67.80;;;;;;5061540;28;20044;-77
2022/07/26 12:19:51;;;;;;;4.03;1.30;;;21.60;67.40;;;;;;5062141;28;20115;-77
2022/07/26 12:22:22;;;;;;;3.80;1.45;;;21.60;68.30;;;;;;5062878;28;20033;-80
2022/07/26 12:24:50;;;;;;;2.13;1.33;;;21.70;66.90;;;;;;5053959;28;20045;-78
2022/07/26 12:27:21;;;;;;;2.05;1.02;;;21.70;66.30;;;;;;5058988;28;20040;-76
2022/07/26 12:29:55;;;;;;;3.65;1.10;;;21.90;66.10;;;;;;5060781;28;20111;-78
2022/07/26 12:32:29;;;;;;;3.90;1.05;;;21.80;66.60;;;;;;5057516;28;20610;-75
2022/07/26 12:35:09;;;;;;;1.73;1.00;;;21.30;66.60;;;;;;5057538;28;20040;-77
2022/07/26 12:37:56;;;;;;;3.58;1.00;;;20.80;67.40;;;;;;5056548;28;20529;-76
2022/07/26 12:40:27;;;;;;;2.92;1.23;;;20.70;67.90;;;;;;5061197;28;20750;-76
2022/07/26 12:42:57;;;;;;;3.70;1.30;;;20.80;68.40;;;;;;5033582;28;20044;-75